Time;durP1;ratioP1;P1;durP2;ratioP2;P2;SDS_P1;SDS_P2;PMS_P1;PMS_P2;Temp;Humidity;BMP_temperature;BMP_pressure;BME280_temperature;BME280_humidity;BME280_pressure;Samples;Min_cycle;Max_cycle;Signal;HPM_P1;HPM_P2
2022/08/25 00:01:27;;;;;;;4.93;2.70;;;;;;;;;;5072100;28;20060;-75
2022/08/25 00:03:53;;;;;;;4.88;2.60;;;;;;;;;;5071165;28;20048;-81
2022/08/25 00:06:18;;;;;;;3.80;2.70;;;;;;;;;;5071378;28;20444;-75
2022/08/25 00:08:44;;;;;;;18.80;3.35;;;;;;;;;;5072429;28;20043;-75
2022/08/25 00:11:22;;;;;;;4.88;2.90;;;;;;;;;;5072270;28;20468;-81
2022/08/25 00:13:53;;;;;;;5.18;2.60;;;;;;;;;;5071492;28;20036;-74
2022/08/25 00:16:20;;;;;;;5.88;3.45;;;;;;;;;;5072480;28;20468;-76
2022/08/25 00:18:50;;;;;;;4.20;2.80;;;;;;;;;;5070839;28;20043;-75
2022/08/25 00:21:16;;;;;;;4.15;3.08;;;;;;;;;;5072116;28;20024;-75
2022/08/25 00:23:42;;;;;;;3.67;2.85;;;;;;;;;;5072406;28;20111;-80
2022/08/25 00:26:09;;;;;;;3.28;2.83;;;;;;;;;;5071240;28;20025;-80
2022/08/25 00:28:35;;;;;;;4.88;3.60;;;;;;;;;;5070743;28;20107;-75
2022/08/25 00:31:01;;;;;;;4.05;2.80;;;;;;;;;;5072432;28;20029;-80
2022/08/25 00:33:30;;;;;;;4.10;3.63;;;;;;;;;;5070912;28;20380;-76
2022/08/25 00:35:56;;;;;;;5.13;2.85;;;;;;;;;;5071186;28;20044;-75
2022/08/25 00:38:21;;;;;;;4.40;3.40;;;;;;;;;;5072186;28;20032;-76
2022/08/25 00:41:04;;;;;;;3.53;2.95;;;;;;;;;;5071007;28;20111;-75
2022/08/25 00:43:39;;;;;;;3.88;2.88;;;;;;;;;;5072104;28;20049;-75
2022/08/25 00:46:08;;;;;;;3.80;2.70;;;;;;;;;;5072161;28;20037;-81
2022/08/25 00:48:34;;;;;;;4.10;2.90;;;;;;;;;;5070959;28;20102;-81
2022/08/25 00:51:01;;;;;;;4.20;3.05;;;;;;;;;;5070617;28;20075;-75
2022/08/25 00:53:29;;;;;;;3.95;3.15;;;;;;;;;;5072169;28;20476;-76
2022/08/25 00:55:56;;;;;;;3.80;2.92;;;;;;;;;;5071952;28;20473;-75
2022/08/25 00:58:25;;;;;;;3.85;3.03;;;;;;;;;;5071857;28;20032;-76
2022/08/25 01:00:54;;;;;;;3.63;2.85;;;;;;;;;;5072052;28;20024;-79
2022/08/25 01:03:22;;;;;;;4.75;2.83;;;;;;;;;;5072412;28;20036;-75
2022/08/25 01:05:49;;;;;;;4.35;3.15;;;;;;;;;;5071562;28;20021;-81
2022/08/25 01:08:20;;;;;;;3.40;3.05;;;;;;;;;;5072000;28;20106;-75
2022/08/25 01:10:48;;;;;;;3.93;3.10;;;;;;;;;;5070547;28;20063;-80
2022/08/25 01:13:22;;;;;;;4.63;3.45;;;;;;;;;;5074055;28;20395;-81
2022/08/25 01:15:52;;;;;;;4.75;3.33;;;;;;;;;;5074124;28;20020;-78
2022/08/25 01:18:18;;;;;;;4.10;3.15;;;;;;;;;;5066417;28;20028;-81
2022/08/25 01:20:49;;;;;;;4.85;3.08;;;;;;;;;;5073786;28;20036;-79
2022/08/25 01:23:14;;;;;;;3.65;2.97;;;;;;;;;;5080028;28;20079;-76
2022/08/25 01:26:02;;;;;;;5.38;3.30;;;;;;;;;;5074867;28;20020;-81
2022/08/25 01:28:28;;;;;;;4.60;3.30;;;;;;;;;;5073992;28;20017;-81
2022/08/25 01:30:53;;;;;;;3.85;3.22;;;;;;;;;;5075214;28;20036;-75
2022/08/25 01:33:19;;;;;;;4.75;3.63;;;;;;;;;;5073713;28;20031;-76
2022/08/25 01:35:45;;;;;;;6.47;3.33;;;;;;;;;;5073400;28;20076;-81
2022/08/25 01:38:11;;;;;;;4.60;3.40;;;;;;;;;;5074725;28;20109;-76
2022/08/25 01:40:38;;;;;;;4.82;3.30;;;;;;;;;;5073583;28;20062;-76
2022/08/25 01:43:25;;;;;;;4.43;3.40;;;;;;;;;;5075209;28;20392;-75
2022/08/25 01:45:50;;;;;;;5.05;3.38;;;;;;;;;;5073714;28;20423;-76
2022/08/25 01:48:17;;;;;;;4.40;3.38;;;;;;;;;;5073759;28;20021;-79
2022/08/25 01:50:43;;;;;;;6.45;3.60;;;;;;;;;;5073601;28;20025;-80
2022/08/25 01:53:25;;;;;;;4.38;3.33;;;;;;;;;;5073105;28;20119;-80
2022/08/25 01:55:50;;;;;;;4.43;3.38;;;;;;;;;;5074401;28;20047;-81
2022/08/25 01:58:22;;;;;;;6.10;3.85;;;;;;;;;;5074791;28;20504;-76
2022/08/25 02:00:54;;;;;;;4.75;3.75;;;;;;;;;;5074731;28;20107;-76
2022/08/25 02:03:20;;;;;;;4.43;3.70;;;;;;;;;;5074954;28;20110;-75
2022/08/25 02:05:46;;;;;;;5.50;3.70;;;;;;;;;;5074482;28;20067;-75
2022/08/25 02:08:11;;;;;;;4.82;3.60;;;;;;;;;;5073076;28;20119;-81
2022/08/25 02:10:37;;;;;;;6.95;3.95;;;;;;;;;;5073421;28;20082;-75
2022/08/25 02:13:04;;;;;;;4.78;3.72;;;;;;;;;;5074796;28;20024;-75
2022/08/25 02:15:30;;;;;;;4.85;3.85;;;;;;;;;;5072978;28;20024;-80
2022/08/25 02:17:56;;;;;;;5.30;3.78;;;;;;;;;;5074376;28;20385;-79
2022/08/25 02:20:22;;;;;;;5.18;3.70;;;;;;;;;;5074317;28;20021;-80
2022/08/25 02:22:50;;;;;;;5.13;3.83;;;;;;;;;;5055333;28;20123;-75
2022/08/25 02:25:16;;;;;;;5.90;3.88;;;;;;;;;;5074258;28;20484;-81
2022/08/25 02:27:41;;;;;;;5.03;3.70;;;;;;;;;;5074084;28;20024;-75
2022/08/25 02:30:09;;;;;;;5.63;4.13;;;;;;;;;;5072654;28;20033;-80
2022/08/25 02:32:34;;;;;;;4.97;3.90;;;;;;;;;;5056370;28;20024;-81
2022/08/25 02:34:59;;;;;;;5.88;4.32;;;;;;;;;;5072553;28;20048;-75
2022/08/25 02:37:25;;;;;;;7.05;4.68;;;;;;;;;;5073648;28;20067;-75
2022/08/25 02:39:50;;;;;;;5.18;4.03;;;;;;;;;;5074280;28;20058;-80
2022/08/25 02:42:16;;;;;;;5.97;4.60;;;;;;;;;;5072703;28;20029;-79
2022/08/25 02:44:41;;;;;;;7.47;4.50;;;;;;;;;;5073770;28;20103;-81
2022/08/25 02:47:07;;;;;;;10.52;5.22;;;;;;;;;;5073928;28;20024;-75
2022/08/25 02:49:32;;;;;;;6.40;4.70;;;;;;;;;;5073194;28;20365;-79
2022/08/25 02:51:59;;;;;;;5.93;4.50;;;;;;;;;;5073611;28;20032;-74
2022/08/25 02:54:25;;;;;;;5.78;4.20;;;;;;;;;;5073470;28;20021;-81
2022/08/25 02:56:51;;;;;;;7.18;4.50;;;;;;;;;;5072498;28;20484;-75
2022/08/25 02:59:19;;;;;;;5.63;3.85;;;;;;;;;;5073470;28;20086;-81
2022/08/25 03:01:45;;;;;;;5.63;3.92;;;;;;;;;;5073349;28;20028;-75
2022/08/25 03:04:11;;;;;;;6.10;4.10;;;;;;;;;;5073542;28;20107;-75
2022/08/25 03:06:36;;;;;;;7.93;4.10;;;;;;;;;;5072061;28;20127;-79
2022/08/25 03:09:03;;;;;;;7.63;4.20;;;;;;;;;;5071723;28;20025;-79
2022/08/25 03:11:28;;;;;;;6.82;4.45;;;;;;;;;;5072159;28;20055;-74
2022/08/25 03:13:55;;;;;;;5.50;4.28;;;;;;;;;;5071874;28;20029;-80
2022/08/25 03:16:20;;;;;;;5.35;3.85;;;;;;;;;;5073212;28;20583;-75
2022/08/25 03:18:48;;;;;;;5.65;4.20;;;;;;;;;;5073193;28;20111;-80
2022/08/25 03:21:13;;;;;;;7.53;3.88;;;;;;;;;;5055330;28;20036;-77
2022/08/25 03:23:40;;;;;;;6.75;4.50;;;;;;;;;;5071817;28;20027;-78
2022/08/25 03:28:50;;;;;;;5.70;4.20;;;;;;;;;;5072969;28;20051;-80
2022/08/25 03:31:16;;;;;;;7.32;4.20;;;;;;;;;;5072829;28;20025;-79
2022/08/25 03:33:41;;;;;;;6.35;3.83;;;;;;;;;;5071400;28;20024;-81
2022/08/25 03:36:08;;;;;;;5.15;3.80;;;;;;;;;;5071612;28;20140;-80
2022/08/25 03:38:37;;;;;;;5.75;3.72;;;;;;;;;;5071617;28;20025;-76
2022/08/25 03:41:11;;;;;;;5.60;3.67;;;;;;;;;;5073157;28;20034;-75
2022/08/25 03:43:37;;;;;;;6.00;3.90;;;;;;;;;;5072700;28;20457;-80
2022/08/25 03:46:02;;;;;;;5.55;3.83;;;;;;;;;;5071750;28;20021;-76
2022/08/25 03:48:28;;;;;;;5.18;3.55;;;;;;;;;;5072376;28;20096;-74
2022/08/25 03:50:53;;;;;;;7.43;3.70;;;;;;;;;;5072836;28;20032;-76
2022/08/25 03:53:20;;;;;;;5.45;3.88;;;;;;;;;;5072686;28;20111;-75
2022/08/25 03:55:46;;;;;;;5.85;3.80;;;;;;;;;;5071462;28;20025;-80
2022/08/25 03:58:12;;;;;;;4.93;3.30;;;;;;;;;;5071113;28;20048;-75
2022/08/25 04:00:37;;;;;;;6.47;3.88;;;;;;;;;;5071009;28;20020;-80
2022/08/25 04:03:02;;;;;;;6.85;4.45;;;;;;;;;;5071166;28;20557;-80
2022/08/25 04:05:28;;;;;;;5.72;4.05;;;;;;;;;;5072722;28;20496;-80
2022/08/25 04:07:54;;;;;;;5.05;3.63;;;;;;;;;;5071357;28;20039;-75
2022/08/25 04:10:20;;;;;;;5.50;3.50;;;;;;;;;;5072144;28;20025;-79
2022/08/25 04:12:47;;;;;;;6.88;4.30;;;;;;;;;;5054845;28;20032;-80
2022/08/25 04:15:14;;;;;;;6.78;4.10;;;;;;;;;;5072732;28;20028;-80
2022/08/25 04:17:40;;;;;;;6.65;3.88;;;;;;;;;;5071416;28;20388;-74
2022/08/25 04:20:08;;;;;;;6.38;3.67;;;;;;;;;;5072382;28;20029;-80
2022/08/25 04:22:33;;;;;;;8.88;3.50;;;;;;;;;;5070678;28;20040;-80
2022/08/25 04:24:59;;;;;;;5.60;3.65;;;;;;;;;;5072458;28;20037;-79
2022/08/25 04:27:24;;;;;;;5.63;4.00;;;;;;;;;;5071146;28;20070;-75
2022/08/25 04:29:50;;;;;;;4.68;3.38;;;;;;;;;;5072223;28;20115;-80
2022/08/25 04:32:15;;;;;;;7.30;4.43;;;;;;;;;;5071241;28;20032;-75
2022/08/25 04:34:42;;;;;;;6.03;3.63;;;;;;;;;;5071951;28;20114;-75
2022/08/25 04:37:07;;;;;;;5.30;3.47;;;;;;;;;;5072045;28;20067;-76
2022/08/25 04:39:34;;;;;;;5.25;3.40;;;;;;;;;;5070889;28;20020;-79
2022/08/25 04:42:00;;;;;;;7.18;3.63;;;;;;;;;;5054408;28;20489;-80
2022/08/25 04:44:28;;;;;;;5.03;3.17;;;;;;;;;;5070946;28;20476;-79
2022/08/25 04:46:53;;;;;;;4.68;3.10;;;;;;;;;;5074864;28;20024;-74
2022/08/25 04:49:18;;;;;;;4.32;3.25;;;;;;;;;;5074725;28;20090;-79
2022/08/25 04:51:44;;;;;;;4.88;3.50;;;;;;;;;;5075906;28;20032;-80
2022/08/25 04:54:12;;;;;;;5.82;3.00;;;;;;;;;;5075838;28;20384;-80
2022/08/25 04:56:41;;;;;;;6.28;3.45;;;;;;;;;;5074779;28;20459;-75
2022/08/25 04:59:10;;;;;;;5.75;2.95;;;;;;;;;;5075810;28;20025;-81
2022/08/25 05:01:36;;;;;;;4.85;3.40;;;;;;;;;;5074152;28;20036;-75
2022/08/25 05:04:04;;;;;;;4.65;3.00;;;;;;;;;;5074147;28;20024;-79
2022/08/25 05:06:30;;;;;;;4.80;3.30;;;;;;;;;;5074338;28;20107;-80
2022/08/25 05:08:57;;;;;;;4.32;3.10;;;;;;;;;;5075673;28;20052;-80
2022/08/25 05:11:24;;;;;;;5.80;3.08;;;;;;;;;;5075107;28;20032;-75
2022/08/25 05:13:51;;;;;;;5.03;3.13;;;;;;;;;;5074377;28;20028;-75
2022/08/25 05:16:18;;;;;;;4.75;2.90;;;;;;;;;;5074117;28;20055;-80
2022/08/25 05:18:44;;;;;;;4.80;3.10;;;;;;;;;;5075290;28;20124;-75
2022/08/25 05:21:15;;;;;;;4.80;3.30;;;;;;;;;;5074092;28;20064;-76
2022/08/25 05:23:42;;;;;;;3.83;2.75;;;;;;;;;;5075288;28;20059;-80
2022/08/25 05:26:11;;;;;;;6.68;3.55;;;;;;;;;;5074348;28;20415;-75
2022/08/25 05:28:40;;;;;;;5.25;3.08;;;;;;;;;;5073720;28;20055;-80
2022/08/25 05:31:07;;;;;;;4.90;3.20;;;;;;;;;;5075154;28;20067;-75
2022/08/25 05:33:33;;;;;;;6.88;3.17;;;;;;;;;;5073620;28;20073;-81
2022/08/25 05:35:59;;;;;;;4.93;3.10;;;;;;;;;;5075070;28;20048;-80
2022/08/25 05:38:25;;;;;;;6.13;3.30;;;;;;;;;;5073445;28;20358;-75
2022/08/25 05:40:55;;;;;;;6.35;3.47;;;;;;;;;;5073869;28;20029;-75
2022/08/25 05:43:20;;;;;;;6.20;3.25;;;;;;;;;;5075072;28;20031;-80
2022/08/25 05:45:46;;;;;;;4.95;2.92;;;;;;;;;;5075278;28;20032;-80
2022/08/25 05:48:11;;;;;;;5.75;3.00;;;;;;;;;;5074895;28;20016;-80
2022/08/25 05:50:37;;;;;;;5.57;2.80;;;;;;;;;;5073919;28;20032;-75
2022/08/25 05:53:02;;;;;;;4.70;3.08;;;;;;;;;;5073601;28;20028;-75
2022/08/25 05:55:29;;;;;;;5.00;3.00;;;;;;;;;;5073377;28;20028;-80
2022/08/25 05:57:55;;;;;;;5.45;3.17;;;;;;;;;;5055726;28;20064;-82
2022/08/25 06:00:21;;;;;;;5.35;3.40;;;;;;;;;;5056443;28;20059;-80
2022/08/25 06:02:48;;;;;;;5.38;3.13;;;;;;;;;;5073257;28;20033;-75
2022/08/25 06:05:20;;;;;;;7.43;3.15;;;;;;;;;;5073096;28;20098;-75
2022/08/25 06:07:52;;;;;;;5.38;3.25;;;;;;;;;;5074917;28;20039;-74
2022/08/25 06:10:19;;;;;;;4.93;2.88;;;;;;;;;;5074241;28;20431;-80
2022/08/25 06:12:44;;;;;;;6.00;3.22;;;;;;;;;;5073415;28;20476;-75
2022/08/25 06:15:18;;;;;;;4.22;2.67;;;;;;;;;;5074510;28;20044;-80
2022/08/25 06:17:44;;;;;;;3.83;2.78;;;;;;;;;;5073108;28;20028;-81
2022/08/25 06:20:12;;;;;;;4.90;3.00;;;;;;;;;;5074405;28;20081;-80
2022/08/25 06:22:38;;;;;;;5.65;3.20;;;;;;;;;;5056157;28;20029;-75
2022/08/25 06:25:04;;;;;;;6.47;3.20;;;;;;;;;;5072774;28;20110;-76
2022/08/25 06:27:30;;;;;;;4.55;3.15;;;;;;;;;;5074217;28;20059;-75
2022/08/25 06:29:55;;;;;;;4.60;3.08;;;;;;;;;;5073079;28;20111;-75
2022/08/25 06:32:21;;;;;;;4.38;2.72;;;;;;;;;;5072747;28;20475;-79
2022/08/25 06:34:46;;;;;;;3.88;2.83;;;;;;;;;;5073795;28;20049;-80
2022/08/25 06:37:11;;;;;;;4.35;2.83;;;;;;;;;;5073030;28;20023;-74
2022/08/25 06:39:37;;;;;;;5.60;2.90;;;;;;;;;;5072493;28;20056;-80
2022/08/25 06:42:03;;;;;;;5.72;2.90;;;;;;;;;;5074207;28;20031;-80
2022/08/25 06:44:28;;;;;;;7.75;2.90;;;;;;;;;;5072424;28;20047;-80
2022/08/25 06:46:54;;;;;;;5.13;3.00;;;;;;;;;;5074106;28;20026;-75
2022/08/25 06:49:20;;;;;;;5.97;2.80;;;;;;;;;;5073498;28;20064;-75
2022/08/25 06:51:47;;;;;;;8.70;3.10;;;;;;;;;;5072463;28;20036;-79
2022/08/25 06:54:12;;;;;;;5.78;2.85;;;;;;;;;;5072222;28;20473;-80
2022/08/25 06:56:41;;;;;;;5.65;3.03;;;;;;;;;;5073745;28;20032;-80
2022/08/25 06:59:08;;;;;;;5.20;3.20;;;;;;;;;;5071733;28;20048;-80
2022/08/25 07:01:33;;;;;;;5.18;3.38;;;;;;;;;;5072423;28;20040;-81
2022/08/25 07:04:01;;;;;;;5.40;3.20;;;;;;;;;;5073297;28;20028;-75
2022/08/25 07:06:30;;;;;;;5.72;3.40;;;;;;;;;;5073633;28;20369;-75
2022/08/25 07:08:56;;;;;;;7.47;2.90;;;;;;;;;;5071604;28;20032;-74
2022/08/25 07:11:22;;;;;;;6.95;3.17;;;;;;;;;;5072168;28;20021;-75
2022/08/25 07:13:48;;;;;;;8.48;3.30;;;;;;;;;;5073295;28;20039;-75
2022/08/25 07:16:15;;;;;;;5.88;3.10;;;;;;;;;;5072088;28;20031;-77
2022/08/25 07:18:40;;;;;;;5.35;3.35;;;;;;;;;;5073032;28;20384;-75
2022/08/25 07:21:06;;;;;;;8.23;3.30;;;;;;;;;;5071762;28;20024;-80
2022/08/25 07:23:31;;;;;;;6.78;3.35;;;;;;;;;;5072824;28;20476;-74
2022/08/25 07:26:11;;;;;;;6.13;3.30;;;;;;;;;;5071771;28;20431;-74
2022/08/25 07:28:37;;;;;;;5.30;3.33;;;;;;;;;;5071677;28;20082;-80
2022/08/25 07:31:04;;;;;;;6.18;3.45;;;;;;;;;;5073264;28;20021;-81
2022/08/25 07:33:29;;;;;;;5.85;2.90;;;;;;;;;;5071576;28;20480;-74
2022/08/25 07:35:55;;;;;;;6.30;3.30;;;;;;;;;;5072381;28;20106;-80
2022/08/25 07:38:22;;;;;;;7.68;3.25;;;;;;;;;;5073005;28;20488;-80
2022/08/25 07:40:53;;;;;;;7.75;3.17;;;;;;;;;;5071893;28;20024;-80
2022/08/25 07:43:20;;;;;;;7.43;3.15;;;;;;;;;;5072679;28;20024;-75
2022/08/25 07:45:45;;;;;;;6.00;3.35;;;;;;;;;;5073103;28;20024;-76
2022/08/25 07:48:11;;;;;;;5.57;3.10;;;;;;;;;;5071723;28;20372;-81
2022/08/25 07:50:41;;;;;;;6.43;3.30;;;;;;;;;;5071476;28;20017;-75
2022/08/25 07:53:07;;;;;;;6.60;3.15;;;;;;;;;;5069700;28;20024;-75
2022/08/25 07:55:35;;;;;;;7.90;3.30;;;;;;;;;;5072484;28;20089;-74
2022/08/25 07:58:02;;;;;;;5.82;2.97;;;;;;;;;;5072409;28;20024;-80
2022/08/25 08:00:29;;;;;;;6.63;2.83;;;;;;;;;;5071238;28;20024;-80
2022/08/25 08:02:58;;;;;;;5.75;2.95;;;;;;;;;;5071331;28;20044;-80
2022/08/25 08:05:24;;;;;;;8.40;3.13;;;;;;;;;;5072588;28;20051;-80
2022/08/25 08:07:51;;;;;;;7.13;2.70;;;;;;;;;;5071449;28;20017;-81
2022/08/25 08:10:17;;;;;;;4.18;2.72;;;;;;;;;;5068460;28;20170;-80
2022/08/25 08:12:42;;;;;;;5.68;2.58;;;;;;;;;;5070469;28;20133;-81
2022/08/25 08:15:08;;;;;;;4.00;2.33;;;;;;;;;;5071153;28;20370;-75
2022/08/25 08:17:34;;;;;;;9.07;2.80;;;;;;;;;;5071285;28;20020;-80
2022/08/25 08:19:59;;;;;;;7.40;3.38;;;;;;;;;;5072405;28;20056;-80
2022/08/25 08:22:24;;;;;;;6.88;3.00;;;;;;;;;;5073997;28;20508;-80
2022/08/25 08:24:50;;;;;;;5.10;3.13;;;;;;;;;;5074844;28;20507;-76
2022/08/25 08:27:15;;;;;;;5.28;2.80;;;;;;;;;;5075371;28;20032;-75
2022/08/25 08:29:42;;;;;;;6.03;2.88;;;;;;;;;;5076485;28;20032;-80
2022/08/25 08:32:12;;;;;;;7.50;3.17;;;;;;;;;;5075058;28;20028;-81
2022/08/25 08:34:39;;;;;;;4.32;2.75;;;;;;;;;;5074846;28;20128;-76
2022/08/25 08:37:05;;;;;;;6.50;2.67;;;;;;;;;;5075157;28;20020;-76
2022/08/25 08:39:31;;;;;;;6.72;3.00;;;;;;;;;;5076350;28;20107;-75
2022/08/25 08:42:22;;;;;;;5.88;3.10;;;;;;;;;;5073563;28;20104;-76
2022/08/25 08:45:09;;;;;;;5.20;2.90;;;;;;;;;;5075908;28;20028;-75
2022/08/25 08:47:40;;;;;;;5.05;2.95;;;;;;;;;;5067507;28;20032;-81
2022/08/25 08:50:27;;;;;;;7.70;3.00;;;;;;;;;;5074748;28;20032;-75
2022/08/25 08:53:24;;;;;;;7.22;2.97;;;;;;;;;;5074715;28;20028;-76
2022/08/25 08:55:54;;;;;;;8.07;2.55;;;;;;;;;;4988421;28;20042;-80
2022/08/25 08:58:21;;;;;;;5.65;2.78;;;;;;;;;;5074608;28;20021;-75
2022/08/25 09:00:54;;;;;;;7.13;2.85;;;;;;;;;;5074287;28;20031;-80
2022/08/25 09:03:37;;;;;;;5.43;2.83;;;;;;;;;;5075617;28;20036;-81
2022/08/25 09:06:26;;;;;;;6.10;2.88;;;;;;;;;;5075824;28;20107;-76
2022/08/25 09:08:57;;;;;;;5.40;2.83;;;;;;;;;;5074962;28;20093;-81
2022/08/25 09:11:22;;;;;;;7.13;2.88;;;;;;;;;;5058120;28;20028;-82
2022/08/25 09:14:13;;;;;;;7.20;2.42;;;;;;;;;;5075640;28;20175;-81
2022/08/25 09:17:05;;;;;;;5.07;2.30;;;;;;;;;;5074179;28;20031;-81
2022/08/25 09:19:47;;;;;;;5.78;2.60;;;;;;;;;;5073150;28;20392;-75
2022/08/25 09:22:22;;;;;;;5.05;2.90;;;;;;;;;;5074300;28;20051;-80
2022/08/25 09:25:15;;;;;;;5.65;2.50;;;;;;;;;;5075444;28;20591;-76
2022/08/25 09:27:56;;;;;;;4.05;2.75;;;;;;;;;;5061646;28;20025;-75
2022/08/25 09:30:22;;;;;;;3.90;2.40;;;;;;;;;;5073946;28;20032;-75
2022/08/25 09:33:02;;;;;;;4.30;2.47;;;;;;;;;;5074203;28;20017;-81
2022/08/25 09:35:31;;;;;;;6.00;2.80;;;;;;;;;;5073060;28;20496;-76
2022/08/25 09:38:02;;;;;;;4.88;2.53;;;;;;;;;;5073904;28;20033;-81
2022/08/25 09:40:30;;;;;;;4.95;2.47;;;;;;;;;;5073288;28;20059;-75
2022/08/25 09:42:58;;;;;;;6.25;2.75;;;;;;;;;;5073939;28;20369;-75
2022/08/25 09:45:44;;;;;;;5.97;2.60;;;;;;;;;;5073788;28;20054;-80
2022/08/25 09:48:36;;;;;;;5.63;2.65;;;;;;;;;;5074994;28;20059;-76
2022/08/25 09:51:25;;;;;;;4.45;2.70;;;;;;;;;;5065768;28;20036;-82
2022/08/25 09:53:55;;;;;;;6.03;2.70;;;;;;;;;;5058534;28;20550;-82
2022/08/25 09:56:23;;;;;;;4.93;2.30;;;;;;;;;;5073720;28;20469;-75
2022/08/25 09:58:49;;;;;;;5.47;2.42;;;;;;;;;;5074649;28;20020;-76
2022/08/25 10:01:21;;;;;;;4.32;2.30;;;;;;;;;;5074855;28;20033;-81
2022/08/25 10:04:04;;;;;;;5.15;2.60;;;;;;;;;;5073096;28;20423;-82
2022/08/25 10:06:42;;;;;;;4.25;2.55;;;;;;;;;;5067581;28;20025;-82
2022/08/25 10:09:21;;;;;;;4.68;2.47;;;;;;;;;;5073317;28;20023;-82
2022/08/25 10:11:47;;;;;;;5.15;2.75;;;;;;;;;;5073336;28;20078;-81
2022/08/25 10:14:25;;;;;;;8.50;3.10;;;;;;;;;;5073190;28;20159;-76
2022/08/25 10:16:52;;;;;;;5.18;2.67;;;;;;;;;;5073307;28;20369;-82
2022/08/25 10:19:20;;;;;;;8.18;2.40;;;;;;;;;;5073017;28;20052;-76
2022/08/25 10:22:02;;;;;;;5.00;2.55;;;;;;;;;;5074434;28;20377;-76
2022/08/25 10:24:29;;;;;;;6.78;2.40;;;;;;;;;;5079399;28;20473;-82
2022/08/25 10:27:04;;;;;;;4.57;2.30;;;;;;;;;;5072764;28;20489;-76
2022/08/25 10:29:36;;;;;;;3.58;2.50;;;;;;;;;;5072861;28;20476;-81
2022/08/25 10:32:32;;;;;;;3.13;2.00;;;;;;;;;;5074290;28;20021;-82
2022/08/25 10:35:08;;;;;;;4.25;2.45;;;;;;;;;;5073759;28;20040;-82
2022/08/25 10:38:07;;;;;;;5.53;2.42;;;;;;;;;;5065145;28;20492;-76
2022/08/25 10:40:49;;;;;;;5.50;2.60;;;;;;;;;;5072691;28;20032;-76
2022/08/25 10:43:34;;;;;;;3.95;2.70;;;;;;;;;;5058413;28;20408;-77
2022/08/25 10:46:15;;;;;;;7.72;2.75;;;;;;;;;;5073904;28;20021;-81
2022/08/25 10:48:43;;;;;;;5.25;2.65;;;;;;;;;;5067255;28;20134;-81
2022/08/25 10:51:27;;;;;;;7.05;2.70;;;;;;;;;;5073440;28;20385;-77
2022/08/25 10:54:12;;;;;;;4.65;2.58;;;;;;;;;;5072574;28;20503;-76
2022/08/25 10:56:42;;;;;;;5.35;2.28;;;;;;;;;;5073560;28;20020;-81
2022/08/25 10:59:19;;;;;;;4.72;2.60;;;;;;;;;;5072168;28;20067;-76
2022/08/25 11:01:54;;;;;;;5.47;2.38;;;;;;;;;;5061834;28;20050;-81
2022/08/25 11:04:37;;;;;;;5.15;2.10;;;;;;;;;;5071999;28;20063;-82
2022/08/25 11:07:24;;;;;;;3.78;2.00;;;;;;;;;;5073379;28;20028;-81
2022/08/25 11:09:52;;;;;;;4.38;2.30;;;;;;;;;;5072034;28;20055;-76
2022/08/25 11:12:29;;;;;;;9.98;2.60;;;;;;;;;;5072989;28;20047;-81
2022/08/25 11:14:58;;;;;;;4.72;2.20;;;;;;;;;;5072115;28;20052;-81
2022/08/25 11:17:46;;;;;;;5.10;2.00;;;;;;;;;;5071775;28;20036;-79
2022/08/25 11:20:16;;;;;;;4.68;2.10;;;;;;;;;;5072775;28;20058;-76
2022/08/25 11:22:54;;;;;;;2.88;1.90;;;;;;;;;;5071863;28;20123;-77
2022/08/25 11:25:30;;;;;;;5.03;2.25;;;;;;;;;;5071850;28;20028;-76
2022/08/25 11:28:22;;;;;;;3.70;2.10;;;;;;;;;;5072009;28;20112;-81
2022/08/25 11:30:50;;;;;;;3.85;2.20;;;;;;;;;;5064973;28;20107;-77
2022/08/25 11:33:16;;;;;;;3.85;1.83;;;;;;;;;;5071606;28;20028;-81
2022/08/25 11:36:14;;;;;;;2.78;1.85;;;;;;;;;;5060451;28;20076;-82
2022/08/25 11:38:48;;;;;;;4.40;2.10;;;;;;;;;;5028276;28;20043;-76
2022/08/25 11:41:23;;;;;;;3.40;1.73;;;;;;;;;;5071843;28;20503;-76
2022/08/25 11:44:01;;;;;;;7.15;2.30;;;;;;;;;;5071679;28;20043;-76
2022/08/25 11:46:32;;;;;;;3.72;1.83;;;;;;;;;;5071381;28;20017;-76
2022/08/25 11:49:06;;;;;;;4.45;2.17;;;;;;;;;;5072645;28;20035;-76
2022/08/25 11:51:42;;;;;;;4.00;1.95;;;;;;;;;;5072755;28;20028;-81
2022/08/25 11:54:23;;;;;;;3.58;1.63;;;;;;;;;;5071985;28;20031;-82
2022/08/25 11:56:57;;;;;;;3.05;1.92;;;;;;;;;;5060677;28;20481;-82
2022/08/25 11:59:56;;;;;;;3.05;1.90;;;;;;;;;;5071214;28;20018;-80
2022/08/25 12:02:45;;;;;;;3.60;1.90;;;;;;;;;;5066609;28;20503;-76
2022/08/25 12:05:31;;;;;;;3.85;1.90;;;;;;;;;;5071320;28;20013;-76
2022/08/25 12:11:09;;;;;;;3.17;1.70;;;;;;;;;;5072704;28;20082;-82
2022/08/25 12:13:48;;;;;;;4.65;1.80;;;;;;;;;;5057075;28;20735;-76
2022/08/25 12:16:35;;;;;;;2.63;1.70;;;;;;;;;;5071327;28;20424;-82
2022/08/25 12:19:25;;;;;;;4.55;2.00;;;;;;;;;;5070743;28;20016;-76
2022/08/25 12:22:14;;;;;;;4.47;1.90;;;;;;;;;;5071018;28;20659;-76
2022/08/25 12:24:42;;;;;;;3.75;2.10;;;;;;;;;;5032550;28;20032;-76
2022/08/25 12:27:23;;;;;;;3.88;1.88;;;;;;;;;;5071302;28;20033;-76
2022/08/25 12:30:00;;;;;;;3.33;1.90;;;;;;;;;;5072200;28;20485;-82
2022/08/25 12:32:51;;;;;;;2.65;1.98;;;;;;;;;;5070937;28;20028;-82
2022/08/25 12:35:28;;;;;;;2.38;1.70;;;;;;;;;;5070729;28;20098;-76
2022/08/25 12:37:56;;;;;;;3.20;2.10;;;;;;;;;;5072133;28;20047;-76
2022/08/25 12:40:42;;;;;;;3.70;2.00;;;;;;;;;;5072225;28;20032;-76
2022/08/25 12:43:26;;;;;;;3.40;2.08;;;;;;;;;;5062602;28;20046;-82
2022/08/25 12:46:13;;;;;;;5.25;1.80;;;;;;;;;;5072207;28;20016;-76
2022/08/25 12:48:53;;;;;;;4.03;1.95;;;;;;;;;;5071742;28;20020;-82
2022/08/25 12:51:20;;;;;;;3.50;1.98;;;;;;;;;;5063144;28;20107;-76
2022/08/25 12:53:52;;;;;;;3.58;2.08;;;;;;;;;;5070995;28;20506;-76
2022/08/25 12:56:25;;;;;;;6.43;2.33;;;;;;;;;;5071003;28;20515;-81
2022/08/25 12:59:14;;;;;;;3.20;1.70;;;;;;;;;;5071990;28;20025;-82
2022/08/25 13:02:01;;;;;;;3.60;2.08;;;;;;;;;;5070509;28;20025;-76
2022/08/25 13:04:58;;;;;;;3.58;2.08;;;;;;;;;;5070752;28;20020;-81
2022/08/25 13:08:07;;;;;;;5.18;2.05;;;;;;;;;;5072187;28;20095;-76
2022/08/25 13:10:44;;;;;;;2.75;1.83;;;;;;;;;;5075634;28;20384;-82
2022/08/25 13:13:25;;;;;;;3.40;1.70;;;;;;;;;;5075416;28;20021;-81
2022/08/25 13:16:05;;;;;;;2.95;1.77;;;;;;;;;;5074522;28;20545;-76
2022/08/25 13:18:32;;;;;;;2.25;1.77;;;;;;;;;;5074098;28;20024;-80
2022/08/25 13:21:08;;;;;;;3.08;1.92;;;;;;;;;;5074171;28;20051;-82
2022/08/25 13:23:37;;;;;;;3.85;2.00;;;;;;;;;;5074091;28;20025;-76
2022/08/25 13:26:03;;;;;;;4.10;2.10;;;;;;;;;;5075601;28;20028;-76
2022/08/25 13:28:35;;;;;;;5.38;2.20;;;;;;;;;;5075368;28;20020;-76
2022/08/25 13:31:26;;;;;;;3.17;2.00;;;;;;;;;;5075723;28;20103;-81
2022/08/25 13:33:58;;;;;;;4.57;2.00;;;;;;;;;;5058673;28;20055;-80
2022/08/25 13:39:18;;;;;;;2.58;1.80;;;;;;;;;;5075265;28;20067;-76
2022/08/25 13:41:49;;;;;;;4.40;1.83;;;;;;;;;;5074072;28;20028;-83
2022/08/25 13:44:17;;;;;;;2.47;1.80;;;;;;;;;;5073696;28;20035;-81
2022/08/25 13:46:44;;;;;;;4.25;1.92;;;;;;;;;;5057112;28;20040;-76
2022/08/25 13:49:10;;;;;;;4.07;1.95;;;;;;;;;;5073775;28;20095;-75
2022/08/25 13:51:38;;;;;;;3.10;1.80;;;;;;;;;;5074646;28;20062;-82
2022/08/25 13:54:07;;;;;;;3.90;2.08;;;;;;;;;;5074738;28;20032;-82
2022/08/25 13:56:39;;;;;;;4.57;2.10;;;;;;;;;;5073387;28;20048;-76
2022/08/25 13:59:18;;;;;;;3.17;1.98;;;;;;;;;;5073687;28;20024;-81
2022/08/25 14:01:46;;;;;;;3.58;2.05;;;;;;;;;;5073570;28;20032;-82
2022/08/25 14:04:39;;;;;;;5.95;2.10;;;;;;;;;;5073534;28;20025;-82
2022/08/25 14:07:25;;;;;;;4.75;2.05;;;;;;;;;;5072836;28;20037;-75
2022/08/25 14:09:59;;;;;;;3.85;2.00;;;;;;;;;;5074448;28;20033;-76
2022/08/25 14:12:46;;;;;;;2.95;1.92;;;;;;;;;;5073355;28;20062;-76
2022/08/25 14:15:18;;;;;;;3.83;2.20;;;;;;;;;;5074573;28;20535;-81
2022/08/25 14:17:48;;;;;;;4.25;2.10;;;;;;;;;;5073645;28;20032;-76
2022/08/25 14:20:27;;;;;;;3.90;2.15;;;;;;;;;;5072342;28;20024;-82
2022/08/25 14:22:58;;;;;;;4.40;2.00;;;;;;;;;;5063258;28;20028;-80
2022/08/25 14:25:31;;;;;;;2.97;1.95;;;;;;;;;;5073015;28;20055;-76
2022/08/25 14:28:01;;;;;;;3.65;2.33;;;;;;;;;;5072541;28;20013;-81
2022/08/25 14:30:27;;;;;;;5.72;1.88;;;;;;;;;;5074283;28;20361;-76
2022/08/25 14:32:54;;;;;;;4.25;2.20;;;;;;;;;;5072970;28;20024;-77
2022/08/25 14:35:19;;;;;;;2.67;1.80;;;;;;;;;;5078420;28;20044;-76
2022/08/25 14:37:45;;;;;;;4.47;2.10;;;;;;;;;;5073656;28;20039;-76
2022/08/25 14:40:14;;;;;;;3.90;2.03;;;;;;;;;;5074114;28;20016;-81
2022/08/25 14:42:39;;;;;;;4.85;1.95;;;;;;;;;;5074061;28;20048;-76
2022/08/25 14:45:06;;;;;;;3.17;2.20;;;;;;;;;;5073726;28;20064;-76
2022/08/25 14:47:32;;;;;;;3.00;1.83;;;;;;;;;;5072388;28;20024;-76
2022/08/25 14:49:59;;;;;;;3.20;2.00;;;;;;;;;;5072649;28;20492;-76
2022/08/25 14:52:28;;;;;;;3.20;1.85;;;;;;;;;;5073445;28;20474;-76
2022/08/25 14:54:56;;;;;;;4.70;1.73;;;;;;;;;;5073747;28;20122;-82
2022/08/25 14:57:22;;;;;;;4.15;2.00;;;;;;;;;;5055826;28;20032;-76
2022/08/25 14:59:47;;;;;;;3.85;1.95;;;;;;;;;;5073520;28;20029;-81
2022/08/25 15:02:17;;;;;;;3.80;1.98;;;;;;;;;;5071801;28;20050;-76
2022/08/25 15:04:52;;;;;;;2.53;1.70;;;;;;;;;;5072174;28;20047;-76
2022/08/25 15:10:03;;;;;;;4.68;2.13;;;;;;;;;;5073364;28;20082;-76
2022/08/25 15:12:30;;;;;;;2.72;1.90;;;;;;;;;;5072941;28;20046;-81
2022/08/25 15:14:55;;;;;;;2.75;1.95;;;;;;;;;;5072172;28;20028;-81
2022/08/25 15:17:20;;;;;;;3.72;2.00;;;;;;;;;;5073247;28;20028;-82